Time;durP1;ratioP1;P1;durP2;ratioP2;P2;SDS_P1;SDS_P2;PMS_P1;PMS_P2;Temp;Humidity;BMP_temperature;BMP_pressure;BME280_temperature;BME280_humidity;BME280_pressure;Samples;Min_cycle;Max_cycle;Signal;HPM_P1;HPM_P2
2023/07/02 00:00:19;;;;;;;10.02;5.03;;;;;;;19.80;58.50;100659.66;5046088;28;20107;-63
2023/07/02 00:02:46;;;;;;;9.35;4.47;;;;;;;19.79;58.14;100657.22;5045176;28;20057;-63
2023/07/02 00:05:17;;;;;;;13.02;5.45;;;;;;;19.77;58.11;100652.03;5045378;28;20053;-63
2023/07/02 00:07:44;;;;;;;15.50;6.15;;;;;;;19.78;58.02;100659.13;5042990;28;20049;-63
2023/07/02 00:10:12;;;;;;;16.60;5.05;;;;;;;19.76;58.06;100644.97;5046021;28;20049;-63
2023/07/02 00:12:40;;;;;;;11.88;5.45;;;;;;;19.75;58.07;100642.53;5044093;28;20057;-63
2023/07/02 00:15:08;;;;;;;10.30;5.45;;;;;;;19.76;58.07;100657.78;5045076;28;20529;-62
2023/07/02 00:17:39;;;;;;;12.10;5.45;;;;;;;19.74;58.14;100649.88;5044548;28;20053;-61
2023/07/02 00:20:14;;;;;;;12.30;5.25;;;;;;;19.73;57.92;100645.53;5043283;28;20526;-63
2023/07/02 00:22:45;;;;;;;12.40;6.00;;;;;;;19.73;57.97;100642.00;5038696;28;20055;-62
2023/07/02 00:25:14;;;;;;;10.75;5.85;;;;;;;19.70;57.85;100645.31;5038338;28;20481;-63
2023/07/02 00:27:42;;;;;;;14.43;6.90;;;;;;;19.71;57.89;100650.47;5040148;28;20065;-63
2023/07/02 00:30:11;;;;;;;12.20;6.20;;;;;;;19.69;57.90;100644.47;5042833;28;20060;-62
2023/07/02 00:32:39;;;;;;;13.70;6.68;;;;;;;19.69;57.76;100651.84;5038485;28;20042;-63
2023/07/02 00:35:07;;;;;;;13.25;6.22;;;;;;;19.67;57.65;100649.41;5042647;28;20069;-63
2023/07/02 00:37:35;;;;;;;13.23;6.18;;;;;;;19.67;57.61;100651.31;5042413;28;20109;-62
2023/07/02 00:40:06;;;;;;;15.60;5.88;;;;;;;19.66;57.83;100649.69;5043848;28;20048;-63
2023/07/02 00:42:33;;;;;;;14.77;6.70;;;;;;;19.65;57.51;100656.25;5039616;28;20049;-63
2023/07/02 00:45:02;;;;;;;15.23;7.25;;;;;;;19.64;57.52;100651.91;5043664;28;20099;-62
2023/07/02 00:47:33;;;;;;;13.93;7.43;;;;;;;19.64;57.73;100649.19;5042780;28;20075;-63
2023/07/02 00:50:02;;;;;;;16.90;8.02;;;;;;;19.61;57.66;100642.38;5041161;28;20058;-63
2023/07/02 00:52:30;;;;;;;19.45;7.72;;;;;;;19.60;57.63;100648.94;5043478;28;20055;-63
2023/07/02 00:54:58;;;;;;;16.55;7.80;;;;;;;19.60;57.63;100640.75;5043439;28;20453;-63
2023/07/02 00:57:30;;;;;;;12.27;7.00;;;;;;;19.59;57.30;100651.94;5043289;28;20498;-62
2023/07/02 01:00:00;;;;;;;18.95;7.18;;;;;;;19.58;57.45;100656.59;5043854;28;20064;-63
2023/07/02 01:02:29;;;;;;;17.10;8.48;;;;;;;19.57;57.53;100656.88;5042745;28;20095;-62
2023/07/02 01:04:59;;;;;;;16.48;8.23;;;;;;;19.55;57.48;100659.88;5039415;28;20053;-63
2023/07/02 01:07:28;;;;;;;20.58;8.68;;;;;;;19.55;57.51;100668.06;5043300;28;20045;-63
2023/07/02 01:09:56;;;;;;;17.98;8.68;;;;;;;19.52;57.36;100663.19;5043180;28;20108;-62
2023/07/02 01:12:25;;;;;;;18.15;9.25;;;;;;;19.52;57.49;100670.53;5042385;28;20056;-62
2023/07/02 01:15:00;;;;;;;14.18;7.55;;;;;;;19.50;57.60;100662.63;5042344;28;20119;-63
2023/07/02 01:17:37;;;;;;;20.10;9.38;;;;;;;19.49;57.50;100661.81;5042272;28;20048;-62
2023/07/02 01:20:08;;;;;;;19.20;10.32;;;;;;;19.49;57.54;100663.72;5039545;28;20375;-62
2023/07/02 01:22:37;;;;;;;18.63;9.60;;;;;;;19.49;57.43;100661.00;5041845;28;20105;-62
2023/07/02 01:25:08;;;;;;;15.52;9.18;;;;;;;19.44;57.44;100655.59;5042278;28;20061;-63
2023/07/02 01:27:36;;;;;;;25.00;9.82;;;;;;;19.43;57.08;100673.03;5037343;28;20045;-63
2023/07/02 01:30:06;;;;;;;20.77;9.88;;;;;;;19.36;57.36;100657.00;5041716;28;20111;-63
2023/07/02 01:32:34;;;;;;;19.13;9.95;;;;;;;19.43;57.41;100668.41;5042818;28;20068;-63
2023/07/02 01:35:02;;;;;;;21.48;9.77;;;;;;;19.43;57.47;100673.84;5037889;28;20057;-62
2023/07/02 01:37:36;;;;;;;17.50;9.45;;;;;;;19.42;57.42;100682.31;5028845;28;20065;-62
2023/07/02 01:40:06;;;;;;;18.17;10.30;;;;;;;19.41;57.35;100678.78;5039852;28;20112;-62
2023/07/02 01:42:34;;;;;;;19.73;9.82;;;;;;;19.41;57.37;100677.97;5041348;28;20046;-61
2023/07/02 01:45:02;;;;;;;25.02;11.70;;;;;;;19.40;57.43;100681.78;5040016;28;20050;-62
2023/07/02 01:47:30;;;;;;;25.77;11.07;;;;;;;19.38;57.50;100679.34;5039984;28;20105;-62
2023/07/02 01:49:57;;;;;;;21.45;10.75;;;;;;;19.38;57.52;100681.25;5042932;28;20068;-63
2023/07/02 01:52:25;;;;;;;18.98;10.38;;;;;;;19.38;57.46;100681.25;5040216;28;20076;-63
2023/07/02 01:54:54;;;;;;;18.45;10.07;;;;;;;19.36;57.51;100687.00;5036582;28;20545;-63
2023/07/02 01:57:22;;;;;;;25.48;10.73;;;;;;;19.36;57.36;100689.72;5037958;28;20042;-62
2023/07/02 01:59:50;;;;;;;28.33;11.60;;;;;;;19.35;57.31;100687.28;5040458;28;20049;-63
2023/07/02 02:02:17;;;;;;;20.42;10.82;;;;;;;19.34;57.38;100691.09;5043475;28;20045;-62
2023/07/02 02:04:46;;;;;;;25.42;12.82;;;;;;;19.34;57.44;100691.09;5042878;28;20156;-62
2023/07/02 02:07:14;;;;;;;20.95;11.35;;;;;;;19.32;57.49;100685.94;5043599;28;20049;-63
2023/07/02 02:09:42;;;;;;;23.00;11.45;;;;;;;19.32;57.51;100690.56;5041870;28;20068;-62
2023/07/02 02:12:11;;;;;;;25.20;10.65;;;;;;;19.32;57.44;100696.00;5032983;28;20041;-62
2023/07/02 02:14:38;;;;;;;22.02;11.10;;;;;;;19.31;57.55;100691.66;5043085;28;20565;-62
2023/07/02 02:17:06;;;;;;;21.98;11.75;;;;;;;19.29;57.67;100694.66;5043959;28;20108;-62
2023/07/02 02:19:34;;;;;;;21.95;11.73;;;;;;;19.29;57.59;100699.31;5043774;28;20398;-62
2023/07/02 02:22:02;;;;;;;18.80;11.05;;;;;;;19.28;57.63;100690.31;5039084;28;20045;-62
2023/07/02 02:24:30;;;;;;;24.90;11.80;;;;;;;19.27;57.39;100698.78;5041747;28;20084;-63
2023/07/02 02:26:58;;;;;;;20.98;11.80;;;;;;;19.28;57.57;100692.22;5043016;28;20062;-63
2023/07/02 02:29:27;;;;;;;21.15;12.02;;;;;;;19.26;57.52;100692.50;5042752;28;20045;-63
2023/07/02 02:31:55;;;;;;;23.13;12.32;;;;;;;19.25;57.78;100688.16;5041985;28;20084;-63
2023/07/02 02:34:22;;;;;;;24.13;12.57;;;;;;;19.26;57.71;100695.25;5041773;28;20045;-63
2023/07/02 02:36:50;;;;;;;23.70;12.30;;;;;;;19.25;57.71;100693.59;5042298;28;20049;-63
2023/07/02 02:39:18;;;;;;;25.02;12.65;;;;;;;19.25;57.74;100698.25;5040196;28;20166;-62
2023/07/02 02:41:46;;;;;;;25.52;13.00;;;;;;;19.24;57.71;100696.63;5041757;28;20100;-62
2023/07/02 02:44:14;;;;;;;24.05;13.02;;;;;;;19.23;57.90;100697.72;5039536;28;20064;-62
2023/07/02 02:46:43;;;;;;;23.33;12.80;;;;;;;19.22;57.86;100701.53;5044718;28;20076;-63
2023/07/02 02:49:10;;;;;;;27.00;12.98;;;;;;;19.20;57.77;100701.81;5045194;28;20053;-63
2023/07/02 02:51:40;;;;;;;25.13;12.73;;;;;;;19.20;57.96;100707.25;5044758;28;20064;-63
2023/07/02 02:54:08;;;;;;;22.60;13.60;;;;;;;19.19;57.92;100705.63;5046782;28;20083;-63
2023/07/02 02:56:35;;;;;;;27.73;13.57;;;;;;;19.17;57.97;100713.28;5035200;28;20046;-63
2023/07/02 02:59:03;;;;;;;24.25;13.43;;;;;;;19.17;57.93;100719.53;5045024;28;20371;-62
2023/07/02 03:01:32;;;;;;;23.55;13.52;;;;;;;19.16;57.77;100717.09;5046290;28;20049;-62
2023/07/02 03:04:01;;;;;;;23.55;11.93;;;;;;;19.15;57.89;100713.56;5046505;28;20081;-62
2023/07/02 03:06:30;;;;;;;27.55;13.50;;;;;;;19.15;58.02;100726.38;5046437;28;20513;-62
2023/07/02 03:08:58;;;;;;;28.10;14.38;;;;;;;19.13;58.13;100731.28;5045673;28;20176;-62
2023/07/02 03:11:25;;;;;;;26.10;12.73;;;;;;;19.13;58.03;100734.00;5043149;28;20045;-62
2023/07/02 03:13:53;;;;;;;23.23;13.50;;;;;;;19.11;57.88;100733.47;5043508;28;20052;-62
2023/07/02 03:16:22;;;;;;;26.88;13.07;;;;;;;19.10;57.75;100735.38;5041420;28;20045;-62
2023/07/02 03:18:49;;;;;;;29.35;13.63;;;;;;;19.10;57.70;100742.75;5044261;28;20050;-63
2023/07/02 03:21:19;;;;;;;25.27;13.55;;;;;;;19.09;57.75;100741.13;5045389;28;20041;-63
2023/07/02 03:23:46;;;;;;;27.13;13.77;;;;;;;19.08;57.73;100739.50;5041981;28;20045;-63
2023/07/02 03:26:14;;;;;;;25.48;13.43;;;;;;;19.06;58.00;100739.81;5041806;28;20050;-63
2023/07/02 03:28:42;;;;;;;28.08;13.80;;;;;;;19.06;57.89;100749.88;5044836;28;20108;-63
2023/07/02 03:31:10;;;;;;;29.77;13.98;;;;;;;19.04;57.68;100755.59;5043700;28;20053;-63
2023/07/02 03:33:38;;;;;;;28.05;13.38;;;;;;;19.03;57.79;100751.25;5045409;28;20141;-62
2023/07/02 03:36:06;;;;;;;26.65;13.70;;;;;;;19.02;57.74;100755.06;5042474;28;20392;-62
2023/07/02 03:38:35;;;;;;;26.80;13.05;;;;;;;19.02;57.93;100754.25;5042322;28;20379;-63
2023/07/02 03:41:02;;;;;;;23.52;13.25;;;;;;;19.00;57.78;100760.00;5045078;28;20057;-63
2023/07/02 03:43:30;;;;;;;28.33;13.30;;;;;;;18.93;57.55;100750.50;5043164;28;20049;-62
2023/07/02 03:45:58;;;;;;;29.65;14.38;;;;;;;18.99;57.48;100769.25;5043498;28;20041;-62
2023/07/02 03:48:26;;;;;;;25.45;12.80;;;;;;;18.98;57.35;100764.91;5044513;28;20037;-63
2023/07/02 03:50:54;;;;;;;21.15;11.82;;;;;;;18.98;57.35;100766.81;5045734;28;20050;-63
2023/07/02 03:53:22;;;;;;;29.42;12.65;;;;;;;18.97;57.40;100767.91;5040995;28;20410;-63
2023/07/02 03:55:51;;;;;;;24.20;11.82;;;;;;;18.96;57.02;100767.09;5037014;28;20058;-63
2023/07/02 03:58:19;;;;;;;23.98;13.30;;;;;;;18.96;57.32;100772.53;5044902;28;20045;-61
2023/07/02 04:00:49;;;;;;;28.10;13.85;;;;;;;18.96;57.23;100777.97;5045647;28;20064;-62
2023/07/02 04:03:17;;;;;;;19.38;12.57;;;;;;;18.95;57.19;100778.25;5045262;28;20069;-61
2023/07/02 04:05:45;;;;;;;27.17;12.80;;;;;;;18.93;57.01;100775.81;5039412;28;20136;-62
2023/07/02 04:08:13;;;;;;;24.38;12.55;;;;;;;18.93;56.91;100780.44;5045422;28;20049;-62
2023/07/02 04:10:41;;;;;;;34.15;13.73;;;;;;;18.92;57.13;100782.34;5044304;28;20545;-62
2023/07/02 04:13:10;;;;;;;23.10;12.95;;;;;;;18.92;56.95;100781.53;5044280;28;20076;-62
2023/07/02 04:15:38;;;;;;;26.08;11.95;;;;;;;18.91;56.99;100785.34;5045307;28;20057;-63
2023/07/02 04:18:05;;;;;;;27.52;12.68;;;;;;;18.89;56.97;100782.09;5044815;28;20048;-62
2023/07/02 04:20:33;;;;;;;23.10;11.50;;;;;;;18.88;56.97;100781.28;4696461;28;10000530;-63
2023/07/02 04:23:01;;;;;;;29.38;13.95;;;;;;;18.87;57.02;100785.09;5043024;28;20049;-62
2023/07/02 04:25:29;;;;;;;32.17;12.52;;;;;;;18.87;56.99;100785.09;5035740;28;20096;-62
2023/07/02 04:28:18;;;;;;;22.42;12.43;;;;;;;18.82;57.14;100783.22;5041248;28;20048;-64
2023/07/02 04:30:49;;;;;;;22.60;12.55;;;;;;;18.84;57.13;100793.81;5041455;28;20053;-62
2023/07/02 04:33:18;;;;;;;28.73;13.52;;;;;;;18.83;57.09;100795.72;5031960;28;20105;-62
2023/07/02 04:35:46;;;;;;;23.13;12.38;;;;;;;18.83;57.03;100795.72;5043360;28;20061;-62
2023/07/02 04:38:14;;;;;;;29.58;11.98;;;;;;;18.82;57.03;100794.09;5029919;28;20042;-62
2023/07/02 04:40:44;;;;;;;21.02;12.77;;;;;;;18.83;57.10;100795.72;5041982;28;20049;-63
2023/07/02 04:43:13;;;;;;;23.25;12.02;;;;;;;18.81;56.98;100797.91;5035292;28;20049;-64
2023/07/02 04:45:43;;;;;;;23.90;12.57;;;;;;;18.80;57.11;100793.56;5040114;28;20107;-63
2023/07/02 04:48:13;;;;;;;28.20;13.10;;;;;;;18.80;57.08;100807.19;5038958;28;20088;-62
2023/07/02 04:50:42;;;;;;;22.33;12.55;;;;;;;18.79;56.87;100796.56;5042276;28;20045;-62
2023/07/02 04:53:10;;;;;;;22.08;12.55;;;;;;;18.80;56.87;100806.38;5038290;28;20049;-62
2023/07/02 04:55:38;;;;;;;23.30;13.23;;;;;;;18.79;56.76;100802.00;5039190;28;20045;-62
2023/07/02 04:58:06;;;;;;;23.52;11.90;;;;;;;18.78;56.79;100803.09;5040205;28;20057;-62
2023/07/02 05:00:33;;;;;;;24.25;13.20;;;;;;;18.77;56.55;100805.00;5038916;28;20042;-62
2023/07/02 05:03:03;;;;;;;25.13;13.77;;;;;;;18.76;56.69;100808.81;5043166;28;20053;-62
2023/07/02 05:05:31;;;;;;;21.73;12.30;;;;;;;18.75;56.72;100818.09;5041950;28;20061;-62
2023/07/02 05:07:59;;;;;;;25.00;13.25;;;;;;;18.75;56.36;100811.81;5041098;28;20049;-64
2023/07/02 05:10:27;;;;;;;24.40;11.50;;;;;;;18.75;56.23;100814.56;5043289;28;20057;-62
2023/07/02 05:12:54;;;;;;;23.45;11.40;;;;;;;18.74;56.09;100816.47;5042809;28;20149;-62
2023/07/02 05:15:22;;;;;;;19.08;10.98;;;;;;;18.74;56.36;100827.34;5040467;28;20057;-63
2023/07/02 05:17:50;;;;;;;24.40;11.75;;;;;;;18.73;55.85;100822.19;5040680;28;20057;-66
2023/07/02 05:20:19;;;;;;;23.52;12.38;;;;;;;18.72;55.71;100831.44;5041386;28;20038;-63
2023/07/02 05:22:47;;;;;;;20.48;10.38;;;;;;;18.71;55.70;100833.34;5040785;28;20076;-62
2023/07/02 05:25:15;;;;;;;21.25;10.50;;;;;;;18.71;55.68;100840.69;5040312;28;20050;-62
2023/07/02 05:27:43;;;;;;;18.67;10.65;;;;;;;18.71;55.35;100838.78;5039572;28;20050;-62
2023/07/02 05:30:11;;;;;;;19.88;10.00;;;;;;;18.70;55.20;100839.06;5040642;28;20045;-62
2023/07/02 05:32:40;;;;;;;23.38;11.05;;;;;;;18.69;55.39;100838.25;5038900;28;20056;-62
2023/07/02 05:35:08;;;;;;;17.48;9.70;;;;;;;18.70;55.24;100847.22;5038054;28;20049;-61
2023/07/02 05:37:37;;;;;;;21.52;9.60;;;;;;;18.69;55.10;100851.06;5038252;28;20100;-62
2023/07/02 05:40:07;;;;;;;21.13;10.38;;;;;;;18.69;54.87;100845.59;5041166;28;20115;-61
2023/07/02 05:42:36;;;;;;;19.98;9.65;;;;;;;18.69;55.06;100848.31;5041134;28;20049;-63
2023/07/02 05:45:04;;;;;;;22.75;9.80;;;;;;;18.69;55.11;100849.13;5041150;28;20050;-61
2023/07/02 05:47:32;;;;;;;20.85;10.73;;;;;;;18.70;55.00;100855.41;5036280;28;20045;-61
2023/07/02 05:50:00;;;;;;;21.30;9.73;;;;;;;18.69;55.15;100859.22;5040362;28;20049;-64
2023/07/02 05:52:27;;;;;;;19.00;8.82;;;;;;;18.70;54.96;100863.56;5039291;28;20045;-64
2023/07/02 05:54:57;;;;;;;21.05;10.02;;;;;;;18.69;54.90;100862.75;5039521;28;20053;-63
2023/07/02 05:57:24;;;;;;;22.92;10.02;;;;;;;18.68;55.06;100866.56;5040597;28;20076;-64
2023/07/02 05:59:52;;;;;;;19.92;8.98;;;;;;;18.69;54.60;100870.09;5037884;28;20056;-64
2023/07/02 06:02:20;;;;;;;17.02;7.90;;;;;;;18.68;54.56;100874.72;5041257;28;20164;-64
2023/07/02 06:04:48;;;;;;;18.48;8.68;;;;;;;18.69;54.45;100872.81;5038807;28;20054;-65
2023/07/02 06:07:16;;;;;;;20.20;9.05;;;;;;;18.68;54.39;100872.00;5035007;28;20045;-62
2023/07/02 06:09:43;;;;;;;22.92;10.25;;;;;;;18.68;54.22;100879.38;5040095;28;20049;-61
2023/07/02 06:12:13;;;;;;;18.30;9.13;;;;;;;18.67;54.46;100878.53;5038722;28;20374;-61
2023/07/02 06:14:40;;;;;;;19.38;9.20;;;;;;;18.66;54.07;100876.09;5038946;28;20093;-59
2023/07/02 06:17:09;;;;;;;28.20;9.15;;;;;;;18.67;53.41;100875.81;5040359;28;20121;-61
2023/07/02 06:19:38;;;;;;;19.40;8.13;;;;;;;18.69;53.71;100879.09;5042562;28;20049;-62
2023/07/02 06:22:06;;;;;;;29.92;9.13;;;;;;;18.71;53.39;100884.25;5044085;28;20178;-62
2023/07/02 06:24:33;;;;;;;16.58;8.23;;;;;;;18.73;53.39;100880.16;5040900;28;20057;-62
2023/07/02 06:27:01;;;;;;;19.98;8.07;;;;;;;18.77;53.28;100883.16;5045113;28;20061;-63
2023/07/02 06:29:30;;;;;;;18.98;8.75;;;;;;;18.80;53.22;100888.88;5040045;28;20049;-63
2023/07/02 06:31:58;;;;;;;16.05;7.20;;;;;;;18.81;52.77;100893.22;5042024;28;20144;-62
2023/07/02 06:34:26;;;;;;;17.88;8.90;;;;;;;18.82;52.47;100899.50;5038870;28;21600;-62
2023/07/02 06:36:54;;;;;;;16.67;7.15;;;;;;;18.82;52.45;100894.84;5044146;28;20045;-62
2023/07/02 06:39:21;;;;;;;18.27;8.35;;;;;;;18.83;52.40;100892.94;5043281;28;20095;-62
2023/07/02 06:41:49;;;;;;;18.80;7.97;;;;;;;18.83;52.22;100898.41;5042084;28;20069;-63
2023/07/02 06:44:17;;;;;;;21.65;7.75;;;;;;;18.83;52.22;100903.84;5039832;28;20123;-63
2023/07/02 06:46:48;;;;;;;17.67;7.15;;;;;;;18.83;52.29;100903.84;5043477;28;20057;-65
2023/07/02 06:49:16;;;;;;;16.02;7.72;;;;;;;18.83;52.05;100904.66;5045631;28;20053;-64
2023/07/02 06:51:44;;;;;;;18.80;7.07;;;;;;;18.84;51.80;100908.19;5045752;28;20057;-65
2023/07/02 06:54:13;;;;;;;18.60;6.75;;;;;;;18.84;51.84;100909.00;5043813;28;20495;-62
2023/07/02 06:56:41;;;;;;;14.30;6.97;;;;;;;18.83;51.72;100912.81;5041657;28;20053;-62
2023/07/02 06:59:08;;;;;;;14.57;6.47;;;;;;;18.83;51.51;100923.72;5040498;28;20394;-64
2023/07/02 07:01:36;;;;;;;14.13;6.78;;;;;;;18.84;51.99;100916.38;5044282;28;20063;-67
2023/07/02 07:04:06;;;;;;;17.30;7.30;;;;;;;18.84;51.81;100928.06;5043836;28;20088;-67
2023/07/02 07:06:34;;;;;;;18.30;7.30;;;;;;;18.88;52.00;100931.06;5038324;28;20042;-67
2023/07/02 07:09:02;;;;;;;18.85;6.82;;;;;;;18.85;51.83;100940.59;5042498;28;20107;-65
2023/07/02 07:11:30;;;;;;;16.63;7.28;;;;;;;18.86;51.96;100935.97;5045252;28;20310;-66
2023/07/02 07:13:58;;;;;;;15.98;7.00;;;;;;;18.85;51.98;100931.63;5043503;28;20088;-68
2023/07/02 07:16:25;;;;;;;15.80;6.97;;;;;;;18.85;52.09;100931.63;5044280;28;20053;-63
2023/07/02 07:18:53;;;;;;;17.98;7.53;;;;;;;18.84;52.29;100938.97;5043405;28;20053;-66
2023/07/02 07:21:23;;;;;;;15.25;6.90;;;;;;;18.85;52.08;100942.50;5042312;28;20052;-67
2023/07/02 07:23:50;;;;;;;15.82;7.25;;;;;;;18.85;51.91;100943.31;5042721;28;20057;-65
2023/07/02 07:26:18;;;;;;;17.30;7.38;;;;;;;18.86;52.19;100944.13;5041676;28;20072;-62
2023/07/02 07:28:46;;;;;;;18.92;7.60;;;;;;;18.87;52.16;100944.97;5041781;28;20050;-65
2023/07/02 07:31:14;;;;;;;12.48;6.35;;;;;;;18.87;51.89;100953.13;5043903;28;20099;-65
2023/07/02 07:33:41;;;;;;;17.02;6.72;;;;;;;18.85;51.84;100954.22;5043340;28;20057;-67
2023/07/02 07:36:09;;;;;;;13.25;6.55;;;;;;;18.85;51.88;100956.94;5044420;28;20056;-65
2023/07/02 07:38:38;;;;;;;14.45;6.18;;;;;;;18.85;51.73;100961.56;5042901;28;20049;-68
2023/07/02 07:41:06;;;;;;;16.67;6.50;;;;;;;18.85;51.50;100965.13;5040070;28;20072;-65
2023/07/02 07:43:35;;;;;;;16.10;6.53;;;;;;;18.80;52.34;100956.13;5040888;28;20073;-61
2023/07/02 07:46:03;;;;;;;16.45;6.15;;;;;;;18.96;52.63;100970.53;5043180;28;20045;-64
2023/07/02 07:48:30;;;;;;;14.32;6.82;;;;;;;18.93;51.92;100974.63;5043973;28;20056;-64
2023/07/02 07:50:58;;;;;;;14.25;6.13;;;;;;;18.95;51.70;100969.72;5039330;28;20073;-65
2023/07/02 07:53:26;;;;;;;17.33;7.13;;;;;;;18.93;51.26;100969.19;5038382;28;20077;-65
2023/07/02 07:55:55;;;;;;;15.35;5.80;;;;;;;18.95;51.92;100966.19;5044318;28;20088;-64
2023/07/02 07:58:24;;;;;;;15.75;6.13;;;;;;;18.90;50.81;100961.56;5042578;28;20057;-64
2023/07/02 08:00:52;;;;;;;14.20;6.07;;;;;;;18.86;50.43;100968.66;5040635;28;20069;-64
2023/07/02 08:03:19;;;;;;;12.02;5.28;;;;;;;18.85;50.35;100972.47;5043264;28;20084;-64
2023/07/02 08:05:47;;;;;;;14.10;6.60;;;;;;;18.81;50.11;100969.47;5044128;28;20068;-65
2023/07/02 08:08:15;;;;;;;15.30;6.55;;;;;;;18.85;50.02;100972.47;5046182;28;20045;-62
2023/07/02 08:10:43;;;;;;;15.57;6.85;;;;;;;18.91;50.25;100960.47;5043681;28;20053;-65
2023/07/02 08:13:12;;;;;;;17.55;6.07;;;;;;;18.90;50.56;100961.56;5043379;28;20172;-63
2023/07/02 08:15:40;;;;;;;17.42;5.78;;;;;;;18.89;50.42;100972.72;5042104;28;20057;-63
2023/07/02 08:18:09;;;;;;;13.52;6.50;;;;;;;18.87;50.63;100974.91;5043171;28;20053;-62
2023/07/02 08:20:37;;;;;;;14.43;5.93;;;;;;;19.00;51.40;100975.16;5041399;28;20076;-63
2023/07/02 08:23:05;;;;;;;14.70;5.80;;;;;;;18.95;50.46;100983.34;5039938;28;20059;-64
2023/07/02 08:25:33;;;;;;;13.75;5.28;;;;;;;18.93;50.48;100985.53;5042309;28;20045;-62
2023/07/02 08:28:00;;;;;;;18.77;6.00;;;;;;;19.06;50.48;100984.16;5043959;28;20053;-61
2023/07/02 08:30:29;;;;;;;16.48;4.78;;;;;;;19.17;50.32;100999.34;5041793;28;20046;-62
2023/07/02 08:32:57;;;;;;;13.13;5.80;;;;;;;19.04;49.90;100987.16;5040922;28;20076;-61
2023/07/02 08:35:25;;;;;;;12.45;5.43;;;;;;;19.04;50.08;100989.88;5040963;28;20045;-62
2023/07/02 08:37:53;;;;;;;13.48;5.40;;;;;;;19.25;50.93;100990.63;5048010;28;20406;-61
2023/07/02 08:40:21;;;;;;;11.48;5.32;;;;;;;19.32;50.33;100993.06;5039928;28;20087;-61
2023/07/02 08:42:49;;;;;;;14.02;4.97;;;;;;;19.13;50.29;100990.91;5042809;28;20045;-61
2023/07/02 08:45:17;;;;;;;15.88;5.50;;;;;;;19.08;50.35;100998.28;5039686;28;20045;-61
2023/07/02 08:47:46;;;;;;;13.88;5.88;;;;;;;19.26;50.44;101003.16;5039765;28;20092;-62
2023/07/02 08:50:15;;;;;;;10.15;5.15;;;;;;;19.16;49.44;100997.72;5037546;28;20483;-63
2023/07/02 08:52:44;;;;;;;11.35;5.47;;;;;;;19.18;50.69;101006.44;5041195;28;20049;-62
2023/07/02 08:55:12;;;;;;;12.93;5.45;;;;;;;19.24;49.94;101013.50;5034206;28;20084;-62
2023/07/02 08:57:42;;;;;;;11.35;5.20;;;;;;;19.13;49.76;101001.00;5041036;28;20076;-63
2023/07/02 09:00:11;;;;;;;12.15;4.97;;;;;;;19.11;48.68;101004.00;5041447;28;20395;-61
2023/07/02 09:02:39;;;;;;;15.02;5.63;;;;;;;18.96;48.50;100995.88;5051853;28;20046;-61
2023/07/02 09:05:08;;;;;;;11.40;5.60;;;;;;;19.02;48.87;101010.31;5039875;28;20061;-62
2023/07/02 09:07:45;;;;;;;10.35;5.20;;;;;;;18.95;49.18;100998.88;5041457;28;20045;-62
2023/07/02 09:10:25;;;;;;;11.88;5.30;;;;;;;19.02;49.04;101008.41;5039930;28;20159;-62
2023/07/02 09:13:04;;;;;;;15.95;5.03;;;;;;;19.16;49.14;101008.63;5037739;28;20053;-61
2023/07/02 09:15:37;;;;;;;15.05;5.93;;;;;;;19.15;48.64;101002.34;5038252;28;20050;-62
2023/07/02 09:18:15;;;;;;;12.27;4.65;;;;;;;19.24;49.25;101008.06;5035582;28;20049;-61
2023/07/02 09:20:45;;;;;;;10.23;5.05;;;;;;;19.22;48.37;101007.53;5038140;28;20088;-62
2023/07/02 09:23:14;;;;;;;11.93;4.85;;;;;;;19.29;48.35;101010.78;5042121;28;20064;-62
2023/07/02 09:25:41;;;;;;;9.65;4.72;;;;;;;19.17;48.42;101008.34;5042488;28;20321;-63
2023/07/02 09:28:17;;;;;;;15.98;5.20;;;;;;;19.14;48.21;101010.81;5042686;28;20552;-62
2023/07/02 09:30:53;;;;;;;12.10;5.18;;;;;;;19.07;48.42;100999.38;5041701;28;20052;-62
2023/07/02 09:33:21;;;;;;;16.20;5.38;;;;;;;19.09;48.74;101000.72;5039764;28;20041;-63
2023/07/02 09:35:51;;;;;;;15.55;4.90;;;;;;;19.19;49.14;101002.63;5038036;28;20045;-65
2023/07/02 09:38:20;;;;;;;9.65;4.88;;;;;;;19.19;48.77;100995.28;5038555;28;20080;-62
2023/07/02 09:40:50;;;;;;;15.00;5.30;;;;;;;19.17;48.52;100997.44;5036803;28;20443;-63
2023/07/02 09:43:19;;;;;;;16.13;4.68;;;;;;;19.18;48.64;100995.53;5041794;28;20136;-63
2023/07/02 09:45:48;;;;;;;12.52;5.05;;;;;;;19.15;48.53;100996.09;5036244;28;20041;-62
2023/07/02 09:48:17;;;;;;;11.43;5.00;;;;;;;19.17;48.34;100994.72;5042773;28;20364;-63
2023/07/02 09:50:47;;;;;;;16.88;5.50;;;;;;;19.27;48.00;100998.53;5039609;28;20058;-62
2023/07/02 09:53:17;;;;;;;10.55;4.38;;;;;;;19.22;47.65;101007.53;5040806;28;20045;-64
2023/07/02 09:55:45;;;;;;;14.35;5.13;;;;;;;19.18;48.10;101009.97;5040374;28;20060;-63
2023/07/02 09:58:13;;;;;;;12.43;5.07;;;;;;;19.23;48.31;101013.78;5040796;28;20080;-63
2023/07/02 10:00:42;;;;;;;9.95;4.93;;;;;;;19.17;48.09;101008.34;5036048;28;20103;-65
2023/07/02 10:03:10;;;;;;;11.68;5.10;;;;;;;19.22;47.88;101023.88;5044608;28;20073;-65
2023/07/02 10:05:39;;;;;;;9.02;4.78;;;;;;;19.18;48.01;101020.06;5042720;28;20057;-63
2023/07/02 10:08:16;;;;;;;8.90;4.38;;;;;;;19.19;47.61;101010.81;5041814;28;20117;-63
2023/07/02 10:10:46;;;;;;;9.80;4.68;;;;;;;19.19;47.62;101027.16;5044668;28;20316;-65
2023/07/02 10:13:14;;;;;;;12.48;5.32;;;;;;;19.15;47.68;101032.34;5042520;28;20046;-60
2023/07/02 10:15:42;;;;;;;13.20;5.10;;;;;;;19.18;47.45;101050.03;5043808;28;20103;-63
2023/07/02 10:18:10;;;;;;;13.18;6.30;;;;;;;19.19;46.80;101030.69;5041806;28;20050;-63
2023/07/02 10:20:39;;;;;;;11.73;4.95;;;;;;;19.21;47.31;101035.88;5036729;28;20046;-64
2023/07/02 10:23:08;;;;;;;10.18;5.40;;;;;;;19.33;47.78;101038.31;5034511;28;20042;-62
2023/07/02 10:25:38;;;;;;;13.77;4.93;;;;;;;19.38;47.39;101032.84;5042367;28;20049;-63
2023/07/02 10:28:17;;;;;;;14.40;5.72;;;;;;;19.50;47.71;101030.63;5046590;28;20075;-64
2023/07/02 10:30:45;;;;;;;16.70;5.68;;;;;;;19.43;46.91;101036.38;5045372;28;20057;-63
2023/07/02 10:33:14;;;;;;;9.75;5.70;;;;;;;19.32;46.87;101031.22;5039306;28;20395;-62
2023/07/02 10:35:44;;;;;;;11.35;5.53;;;;;;;19.27;47.00;101042.13;5046098;28;20434;-64
2023/07/02 10:38:15;;;;;;;10.48;5.35;;;;;;;19.35;46.34;101047.84;5042829;28;20456;-62
2023/07/02 10:40:44;;;;;;;12.90;5.22;;;;;;;19.34;46.70;101039.94;5045830;28;20578;-63
2023/07/02 10:43:12;;;;;;;16.23;5.57;;;;;;;19.29;46.72;101048.94;5037159;28;20136;-63
2023/07/02 10:45:41;;;;;;;12.40;5.28;;;;;;;19.29;46.21;101046.22;5043950;28;20053;-64
2023/07/02 10:48:10;;;;;;;13.02;4.95;;;;;;;19.48;46.34;101051.91;5043912;28;20423;-63
2023/07/02 10:50:38;;;;;;;12.95;5.13;;;;;;;19.38;46.70;101050.00;5045172;28;20080;-64
2023/07/02 10:53:06;;;;;;;10.05;5.53;;;;;;;19.38;46.74;101050.00;5042123;28;20050;-63
2023/07/02 10:55:33;;;;;;;17.02;6.25;;;;;;;19.35;47.06;101038.84;5045056;28;20099;-63
2023/07/02 10:58:06;;;;;;;15.68;5.75;;;;;;;19.29;47.46;101045.41;5046052;28;20069;-63
2023/07/02 11:00:34;;;;;;;11.35;5.45;;;;;;;19.26;47.57;101043.22;5042186;28;20140;-63
2023/07/02 11:03:04;;;;;;;15.00;5.28;;;;;;;19.27;48.13;101033.94;5044967;28;20063;-63
2023/07/02 11:05:32;;;;;;;13.40;5.55;;;;;;;19.30;47.64;101033.41;5043321;28;20057;-63
2023/07/02 11:08:08;;;;;;;12.00;5.25;;;;;;;19.26;47.95;101024.97;5036449;28;20050;-63
2023/07/02 11:10:36;;;;;;;10.43;4.95;;;;;;;19.28;47.86;101039.13;5044241;28;20049;-62
2023/07/02 11:13:11;;;;;;;12.82;5.40;;;;;;;19.28;47.81;101030.94;5045176;28;20100;-63
2023/07/02 11:15:41;;;;;;;12.93;5.93;;;;;;;19.27;47.69;101042.94;5039546;28;20057;-65
2023/07/02 11:18:14;;;;;;;11.05;5.57;;;;;;;19.30;47.55;101033.41;5044431;28;20049;-63
2023/07/02 11:20:44;;;;;;;15.50;6.38;;;;;;;19.30;47.69;101042.41;5041464;28;20045;-64